sensor_id;sensor_type;location;lat;lon;timestamp;temperature;humidity
35523;DHT22;61478;50.820;4.330;2023-09-19T00:02:17;16.70;99.90
35523;DHT22;61478;50.820;4.330;2023-09-19T00:04:43;16.70;99.90
35523;DHT22;61478;50.820;4.330;2023-09-19T00:07:09;16.70;99.90
35523;DHT22;61478;50.820;4.330;2023-09-19T00:09:35;16.60;99.90
35523;DHT22;61478;50.820;4.330;2023-09-19T00:12:06;16.60;99.90
35523;DHT22;61478;50.820;4.330;2023-09-19T00:14:35;16.60;99.90
35523;DHT22;61478;50.820;4.330;2023-09-19T00:17:04;16.60;99.90
35523;DHT22;61478;50.820;4.330;2023-09-19T00:19:35;16.60;99.90
35523;DHT22;61478;50.820;4.330;2023-09-19T00:22:01;16.60;99.90
35523;DHT22;61478;50.820;4.330;2023-09-19T00:24:27;16.60;99.90
35523;DHT22;61478;50.820;4.330;2023-09-19T00:26:54;16.60;99.90
35523;DHT22;61478;50.820;4.330;2023-09-19T00:29:21;16.60;99.90
35523;DHT22;61478;50.820;4.330;2023-09-19T00:31:49;16.60;99.90
35523;DHT22;61478;50.820;4.330;2023-09-19T00:34:15;16.50;99.90
35523;DHT22;61478;50.820;4.330;2023-09-19T00:36:42;16.40;99.90
35523;DHT22;61478;50.820;4.330;2023-09-19T00:39:08;16.50;99.90
35523;DHT22;61478;50.820;4.330;2023-09-19T00:41:35;16.50;99.90
35523;DHT22;61478;50.820;4.330;2023-09-19T00:44:02;16.50;99.90
35523;DHT22;61478;50.820;4.330;2023-09-19T00:46:30;16.50;99.90
35523;DHT22;61478;50.820;4.330;2023-09-19T00:48:56;16.50;99.90
35523;DHT22;61478;50.820;4.330;2023-09-19T00:51:22;16.50;99.90
35523;DHT22;61478;50.820;4.330;2023-09-19T00:53:51;16.50;99.90
35523;DHT22;61478;50.820;4.330;2023-09-19T00:56:18;16.40;99.90
35523;DHT22;61478;50.820;4.330;2023-09-19T00:58:45;16.40;99.90
35523;DHT22;61478;50.820;4.330;2023-09-19T01:01:15;16.40;99.90
35523;DHT22;61478;50.820;4.330;2023-09-19T01:03:42;16.30;99.90
35523;DHT22;61478;50.820;4.330;2023-09-19T01:06:09;16.40;99.90
35523;DHT22;61478;50.820;4.330;2023-09-19T01:08:35;16.40;99.90
35523;DHT22;61478;50.820;4.330;2023-09-19T01:11:13;16.30;99.90
35523;DHT22;61478;50.820;4.330;2023-09-19T01:16:37;16.30;99.90
35523;DHT22;61478;50.820;4.330;2023-09-19T01:22:12;16.30;99.90
35523;DHT22;61478;50.820;4.330;2023-09-19T01:30:14;16.20;99.90
35523;DHT22;61478;50.820;4.330;2023-09-19T01:32:42;16.20;99.90
35523;DHT22;61478;50.820;4.330;2023-09-19T01:35:08;16.20;99.90
35523;DHT22;61478;50.820;4.330;2023-09-19T01:37:38;16.20;99.90
35523;DHT22;61478;50.820;4.330;2023-09-19T01:40:07;16.20;99.90
35523;DHT22;61478;50.820;4.330;2023-09-19T01:43:17;16.20;99.90
35523;DHT22;61478;50.820;4.330;2023-09-19T01:46:05;16.20;99.90
35523;DHT22;61478;50.820;4.330;2023-09-19T01:48:49;16.20;99.90
35523;DHT22;61478;50.820;4.330;2023-09-19T01:51:32;16.20;99.90
35523;DHT22;61478;50.820;4.330;2023-09-19T01:54:10;16.10;99.90
35523;DHT22;61478;50.820;4.330;2023-09-19T01:56:48;16.20;99.90
35523;DHT22;61478;50.820;4.330;2023-09-19T01:59:25;16.20;99.90
35523;DHT22;61478;50.820;4.330;2023-09-19T02:01:54;16.20;99.90
35523;DHT22;61478;50.820;4.330;2023-09-19T02:04:21;16.10;99.90
35523;DHT22;61478;50.820;4.330;2023-09-19T02:06:47;16.10;99.90
35523;DHT22;61478;50.820;4.330;2023-09-19T02:09:14;16.10;99.90
35523;DHT22;61478;50.820;4.330;2023-09-19T02:11:40;16.10;99.90
35523;DHT22;61478;50.820;4.330;2023-09-19T02:14:08;16.10;99.90
35523;DHT22;61478;50.820;4.330;2023-09-19T02:16:34;16.10;99.90
35523;DHT22;61478;50.820;4.330;2023-09-19T02:19:00;16.10;99.90
35523;DHT22;61478;50.820;4.330;2023-09-19T02:21:30;16.10;99.90
35523;DHT22;61478;50.820;4.330;2023-09-19T02:23:56;16.20;99.90
35523;DHT22;61478;50.820;4.330;2023-09-19T02:26:22;16.10;99.90
35523;DHT22;61478;50.820;4.330;2023-09-19T02:28:50;16.00;99.90
35523;DHT22;61478;50.820;4.330;2023-09-19T02:31:16;16.10;99.90
35523;DHT22;61478;50.820;4.330;2023-09-19T02:33:44;16.10;99.90
35523;DHT22;61478;50.820;4.330;2023-09-19T02:36:11;16.00;99.90
35523;DHT22;61478;50.820;4.330;2023-09-19T02:38:37;16.00;99.90
35523;DHT22;61478;50.820;4.330;2023-09-19T02:41:03;15.90;99.90
35523;DHT22;61478;50.820;4.330;2023-09-19T02:43:28;16.00;99.90
35523;DHT22;61478;50.820;4.330;2023-09-19T02:45:54;16.00;99.90
35523;DHT22;61478;50.820;4.330;2023-09-19T02:48:20;16.00;99.90
35523;DHT22;61478;50.820;4.330;2023-09-19T02:50:49;16.10;99.90
35523;DHT22;61478;50.820;4.330;2023-09-19T02:53:15;16.10;99.90
35523;DHT22;61478;50.820;4.330;2023-09-19T02:55:41;16.10;99.90
35523;DHT22;61478;50.820;4.330;2023-09-19T02:58:07;16.00;99.90
35523;DHT22;61478;50.820;4.330;2023-09-19T03:00:40;16.00;99.90
35523;DHT22;61478;50.820;4.330;2023-09-19T03:03:08;16.00;99.90
35523;DHT22;61478;50.820;4.330;2023-09-19T03:05:34;16.00;99.90
35523;DHT22;61478;50.820;4.330;2023-09-19T03:08:00;16.00;99.90
35523;DHT22;61478;50.820;4.330;2023-09-19T03:10:27;15.90;99.90
35523;DHT22;61478;50.820;4.330;2023-09-19T03:12:53;15.90;99.90
35523;DHT22;61478;50.820;4.330;2023-09-19T03:15:19;15.90;99.90
35523;DHT22;61478;50.820;4.330;2023-09-19T03:17:47;16.00;99.90
35523;DHT22;61478;50.820;4.330;2023-09-19T03:20:13;16.10;99.90
35523;DHT22;61478;50.820;4.330;2023-09-19T03:22:40;16.00;99.90
35523;DHT22;61478;50.820;4.330;2023-09-19T03:25:07;16.10;99.90
35523;DHT22;61478;50.820;4.330;2023-09-19T03:27:39;16.10;99.90
35523;DHT22;61478;50.820;4.330;2023-09-19T03:30:06;16.10;99.90
35523;DHT22;61478;50.820;4.330;2023-09-19T03:32:48;15.90;99.90
35523;DHT22;61478;50.820;4.330;2023-09-19T03:35:16;16.00;99.90
35523;DHT22;61478;50.820;4.330;2023-09-19T03:37:42;15.90;99.90
35523;DHT22;61478;50.820;4.330;2023-09-19T03:40:11;15.80;99.90
35523;DHT22;61478;50.820;4.330;2023-09-19T03:42:39;15.80;99.90
35523;DHT22;61478;50.820;4.330;2023-09-19T03:45:07;15.70;99.90
35523;DHT22;61478;50.820;4.330;2023-09-19T03:47:33;15.70;99.90
35523;DHT22;61478;50.820;4.330;2023-09-19T03:49:58;15.60;99.90
35523;DHT22;61478;50.820;4.330;2023-09-19T03:52:24;15.60;99.90
35523;DHT22;61478;50.820;4.330;2023-09-19T03:54:50;15.60;99.90
35523;DHT22;61478;50.820;4.330;2023-09-19T03:57:16;15.60;99.90
35523;DHT22;61478;50.820;4.330;2023-09-19T03:59:46;15.50;99.90
35523;DHT22;61478;50.820;4.330;2023-09-19T04:02:13;15.50;99.90
35523;DHT22;61478;50.820;4.330;2023-09-19T04:04:48;15.60;99.90
35523;DHT22;61478;50.820;4.330;2023-09-19T04:07:13;15.60;99.90
35523;DHT22;61478;50.820;4.330;2023-09-19T04:09:39;15.60;99.90
35523;DHT22;61478;50.820;4.330;2023-09-19T04:12:05;15.50;99.90
35523;DHT22;61478;50.820;4.330;2023-09-19T04:14:31;15.50;99.90
35523;DHT22;61478;50.820;4.330;2023-09-19T04:16:57;15.50;99.90
35523;DHT22;61478;50.820;4.330;2023-09-19T04:19:23;15.50;99.90
35523;DHT22;61478;50.820;4.330;2023-09-19T04:21:48;15.60;99.90
35523;DHT22;61478;50.820;4.330;2023-09-19T04:24:14;15.50;99.90
35523;DHT22;61478;50.820;4.330;2023-09-19T04:26:40;15.60;99.90
35523;DHT22;61478;50.820;4.330;2023-09-19T04:29:06;15.50;99.90
35523;DHT22;61478;50.820;4.330;2023-09-19T04:31:32;15.60;99.90
35523;DHT22;61478;50.820;4.330;2023-09-19T04:33:57;15.60;99.90
35523;DHT22;61478;50.820;4.330;2023-09-19T04:36:29;15.60;99.90
35523;DHT22;61478;50.820;4.330;2023-09-19T04:38:55;15.50;99.90
35523;DHT22;61478;50.820;4.330;2023-09-19T04:41:21;15.50;99.90
35523;DHT22;61478;50.820;4.330;2023-09-19T04:43:47;15.50;99.90
35523;DHT22;61478;50.820;4.330;2023-09-19T04:46:15;15.50;99.90
35523;DHT22;61478;50.820;4.330;2023-09-19T04:48:41;15.50;99.90
35523;DHT22;61478;50.820;4.330;2023-09-19T04:51:07;15.60;99.90
35523;DHT22;61478;50.820;4.330;2023-09-19T04:53:32;15.60;99.90
35523;DHT22;61478;50.820;4.330;2023-09-19T04:55:59;15.50;99.90
35523;DHT22;61478;50.820;4.330;2023-09-19T04:58:24;15.50;99.90
35523;DHT22;61478;50.820;4.330;2023-09-19T05:00:50;15.40;99.90
35523;DHT22;61478;50.820;4.330;2023-09-19T05:03:17;15.40;99.90
35523;DHT22;61478;50.820;4.330;2023-09-19T05:05:43;15.40;99.90
35523;DHT22;61478;50.820;4.330;2023-09-19T05:08:08;15.40;99.90
35523;DHT22;61478;50.820;4.330;2023-09-19T05:10:35;15.40;99.90
35523;DHT22;61478;50.820;4.330;2023-09-19T05:13:04;15.40;99.90
35523;DHT22;61478;50.820;4.330;2023-09-19T05:15:30;15.40;99.90
35523;DHT22;61478;50.820;4.330;2023-09-19T05:17:56;15.50;99.90
35523;DHT22;61478;50.820;4.330;2023-09-19T05:20:22;15.40;99.90
35523;DHT22;61478;50.820;4.330;2023-09-19T05:23:06;15.40;99.90
35523;DHT22;61478;50.820;4.330;2023-09-19T05:25:38;15.40;99.90
35523;DHT22;61478;50.820;4.330;2023-09-19T05:28:05;15.40;99.90
35523;DHT22;61478;50.820;4.330;2023-09-19T05:30:32;15.30;99.90
35523;DHT22;61478;50.820;4.330;2023-09-19T05:32:58;15.30;99.90
35523;DHT22;61478;50.820;4.330;2023-09-19T05:35:24;15.30;99.90
35523;DHT22;61478;50.820;4.330;2023-09-19T05:37:52;15.30;99.90
35523;DHT22;61478;50.820;4.330;2023-09-19T05:40:19;15.40;99.90
35523;DHT22;61478;50.820;4.330;2023-09-19T05:42:45;15.40;99.90
35523;DHT22;61478;50.820;4.330;2023-09-19T05:45:12;15.40;99.90
35523;DHT22;61478;50.820;4.330;2023-09-19T05:47:39;15.50;99.90
35523;DHT22;61478;50.820;4.330;2023-09-19T05:50:11;15.50;99.90
35523;DHT22;61478;50.820;4.330;2023-09-19T05:52:39;15.50;99.90
35523;DHT22;61478;50.820;4.330;2023-09-19T05:55:06;15.40;99.90
35523;DHT22;61478;50.820;4.330;2023-09-19T05:57:37;15.50;99.90
35523;DHT22;61478;50.820;4.330;2023-09-19T06:00:06;15.40;99.90
35523;DHT22;61478;50.820;4.330;2023-09-19T06:02:37;15.50;99.90
35523;DHT22;61478;50.820;4.330;2023-09-19T06:05:04;15.50;99.90
35523;DHT22;61478;50.820;4.330;2023-09-19T06:07:32;15.50;99.90
35523;DHT22;61478;50.820;4.330;2023-09-19T06:10:03;15.50;99.90
35523;DHT22;61478;50.820;4.330;2023-09-19T06:12:31;15.40;99.90
35523;DHT22;61478;50.820;4.330;2023-09-19T06:14:59;15.40;99.90
35523;DHT22;61478;50.820;4.330;2023-09-19T06:17:25;15.50;99.90
35523;DHT22;61478;50.820;4.330;2023-09-19T06:19:54;15.50;99.90
35523;DHT22;61478;50.820;4.330;2023-09-19T06:22:21;15.50;99.90
35523;DHT22;61478;50.820;4.330;2023-09-19T06:24:47;15.40;99.90
35523;DHT22;61478;50.820;4.330;2023-09-19T06:27:13;15.50;99.90
35523;DHT22;61478;50.820;4.330;2023-09-19T06:29:39;15.40;99.90
35523;DHT22;61478;50.820;4.330;2023-09-19T06:32:08;15.50;99.90
35523;DHT22;61478;50.820;4.330;2023-09-19T06:34:35;15.50;99.90
35523;DHT22;61478;50.820;4.330;2023-09-19T06:37:01;15.50;99.90
35523;DHT22;61478;50.820;4.330;2023-09-19T06:39:28;15.60;99.90
35523;DHT22;61478;50.820;4.330;2023-09-19T06:41:54;15.60;99.90
35523;DHT22;61478;50.820;4.330;2023-09-19T06:44:20;15.70;99.90
35523;DHT22;61478;50.820;4.330;2023-09-19T06:46:50;15.70;99.90
35523;DHT22;61478;50.820;4.330;2023-09-19T06:49:17;15.60;99.90
35523;DHT22;61478;50.820;4.330;2023-09-19T06:51:43;15.70;99.90
35523;DHT22;61478;50.820;4.330;2023-09-19T06:54:10;15.60;99.90
35523;DHT22;61478;50.820;4.330;2023-09-19T06:56:36;15.60;99.90
35523;DHT22;61478;50.820;4.330;2023-09-19T06:59:01;15.70;99.90
35523;DHT22;61478;50.820;4.330;2023-09-19T07:01:29;15.70;99.90
35523;DHT22;61478;50.820;4.330;2023-09-19T07:03:55;15.70;99.90
35523;DHT22;61478;50.820;4.330;2023-09-19T07:06:20;15.70;99.90
35523;DHT22;61478;50.820;4.330;2023-09-19T07:08:46;15.70;99.90
35523;DHT22;61478;50.820;4.330;2023-09-19T07:11:12;15.70;99.90
35523;DHT22;61478;50.820;4.330;2023-09-19T07:13:38;15.70;99.90
35523;DHT22;61478;50.820;4.330;2023-09-19T07:16:04;15.60;99.90
35523;DHT22;61478;50.820;4.330;2023-09-19T07:18:30;15.60;99.90
35523;DHT22;61478;50.820;4.330;2023-09-19T07:20:57;15.60;99.90
35523;DHT22;61478;50.820;4.330;2023-09-19T07:23:30;15.70;99.90
35523;DHT22;61478;50.820;4.330;2023-09-19T07:26:01;15.70;99.90
35523;DHT22;61478;50.820;4.330;2023-09-19T07:28:27;15.80;99.90
35523;DHT22;61478;50.820;4.330;2023-09-19T07:30:53;15.80;99.90
35523;DHT22;61478;50.820;4.330;2023-09-19T07:33:20;15.90;99.90
35523;DHT22;61478;50.820;4.330;2023-09-19T07:35:47;15.90;99.90
35523;DHT22;61478;50.820;4.330;2023-09-19T07:38:13;15.90;99.90
35523;DHT22;61478;50.820;4.330;2023-09-19T07:40:39;16.00;99.90
35523;DHT22;61478;50.820;4.330;2023-09-19T07:43:05;16.10;99.90
35523;DHT22;61478;50.820;4.330;2023-09-19T07:45:32;16.20;99.90
35523;DHT22;61478;50.820;4.330;2023-09-19T07:47:58;16.10;99.90
35523;DHT22;61478;50.820;4.330;2023-09-19T07:50:27;16.20;99.90
35523;DHT22;61478;50.820;4.330;2023-09-19T07:52:53;16.10;99.90
35523;DHT22;61478;50.820;4.330;2023-09-19T07:55:22;16.20;99.90
35523;DHT22;61478;50.820;4.330;2023-09-19T07:57:54;16.20;99.90
35523;DHT22;61478;50.820;4.330;2023-09-19T08:00:20;16.20;99.90
35523;DHT22;61478;50.820;4.330;2023-09-19T08:02:46;16.30;99.90
35523;DHT22;61478;50.820;4.330;2023-09-19T08:05:14;16.30;99.90
35523;DHT22;61478;50.820;4.330;2023-09-19T08:07:45;16.30;99.90
35523;DHT22;61478;50.820;4.330;2023-09-19T08:10:14;16.30;99.90
35523;DHT22;61478;50.820;4.330;2023-09-19T08:12:42;16.40;99.90
35523;DHT22;61478;50.820;4.330;2023-09-19T08:15:19;16.40;99.90
35523;DHT22;61478;50.820;4.330;2023-09-19T08:17:45;16.50;99.90
35523;DHT22;61478;50.820;4.330;2023-09-19T08:20:12;16.60;99.90
35523;DHT22;61478;50.820;4.330;2023-09-19T08:22:44;16.60;99.90
35523;DHT22;61478;50.820;4.330;2023-09-19T08:25:14;16.60;99.90
35523;DHT22;61478;50.820;4.330;2023-09-19T08:27:41;16.60;99.90
35523;DHT22;61478;50.820;4.330;2023-09-19T08:30:09;16.70;99.90
35523;DHT22;61478;50.820;4.330;2023-09-19T08:32:36;16.70;99.90
35523;DHT22;61478;50.820;4.330;2023-09-19T08:35:02;16.70;99.90
35523;DHT22;61478;50.820;4.330;2023-09-19T08:37:30;16.80;99.90
35523;DHT22;61478;50.820;4.330;2023-09-19T08:39:55;16.80;99.90
35523;DHT22;61478;50.820;4.330;2023-09-19T08:42:21;16.90;99.90
35523;DHT22;61478;50.820;4.330;2023-09-19T08:44:50;17.00;99.90
35523;DHT22;61478;50.820;4.330;2023-09-19T08:47:26;17.00;99.90
35523;DHT22;61478;50.820;4.330;2023-09-19T08:50:33;17.10;99.90
35523;DHT22;61478;50.820;4.330;2023-09-19T08:53:02;17.10;99.90
35523;DHT22;61478;50.820;4.330;2023-09-19T08:55:34;17.20;99.90
35523;DHT22;61478;50.820;4.330;2023-09-19T08:58:03;17.30;99.90
35523;DHT22;61478;50.820;4.330;2023-09-19T09:00:30;17.40;99.90
35523;DHT22;61478;50.820;4.330;2023-09-19T09:02:58;17.40;99.90
35523;DHT22;61478;50.820;4.330;2023-09-19T09:05:24;17.40;99.90
35523;DHT22;61478;50.820;4.330;2023-09-19T09:07:52;17.40;99.90
35523;DHT22;61478;50.820;4.330;2023-09-19T09:10:22;17.60;99.90
35523;DHT22;61478;50.820;4.330;2023-09-19T09:12:58;17.70;99.90
35523;DHT22;61478;50.820;4.330;2023-09-19T09:15:24;17.90;99.90
35523;DHT22;61478;50.820;4.330;2023-09-19T09:17:51;18.20;99.90
35523;DHT22;61478;50.820;4.330;2023-09-19T09:20:21;18.30;99.90
35523;DHT22;61478;50.820;4.330;2023-09-19T09:22:54;18.20;99.90
35523;DHT22;61478;50.820;4.330;2023-09-19T09:25:21;18.00;99.90
35523;DHT22;61478;50.820;4.330;2023-09-19T09:28:02;18.10;99.90
35523;DHT22;61478;50.820;4.330;2023-09-19T09:30:37;18.00;99.90
35523;DHT22;61478;50.820;4.330;2023-09-19T09:33:13;18.10;99.90
35523;DHT22;61478;50.820;4.330;2023-09-19T09:35:55;18.10;99.90
35523;DHT22;61478;50.820;4.330;2023-09-19T09:38:30;18.20;99.90
35523;DHT22;61478;50.820;4.330;2023-09-19T09:41:00;18.20;99.90
35523;DHT22;61478;50.820;4.330;2023-09-19T09:43:36;18.30;99.90
35523;DHT22;61478;50.820;4.330;2023-09-19T09:46:15;18.50;99.90
35523;DHT22;61478;50.820;4.330;2023-09-19T09:49:07;18.40;99.90
35523;DHT22;61478;50.820;4.330;2023-09-19T09:51:58;18.40;99.90
35523;DHT22;61478;50.820;4.330;2023-09-19T09:54:29;18.30;99.90
35523;DHT22;61478;50.820;4.330;2023-09-19T09:57:06;18.40;99.90
35523;DHT22;61478;50.820;4.330;2023-09-19T10:00:04;18.30;99.90
35523;DHT22;61478;50.820;4.330;2023-09-19T10:02:39;18.30;99.90
35523;DHT22;61478;50.820;4.330;2023-09-19T10:05:18;18.40;99.90
35523;DHT22;61478;50.820;4.330;2023-09-19T10:07:54;18.40;99.90
35523;DHT22;61478;50.820;4.330;2023-09-19T10:10:37;18.50;99.90
35523;DHT22;61478;50.820;4.330;2023-09-19T10:13:26;18.60;99.90
35523;DHT22;61478;50.820;4.330;2023-09-19T10:15:55;18.60;99.90
35523;DHT22;61478;50.820;4.330;2023-09-19T10:18:26;18.80;99.90
35523;DHT22;61478;50.820;4.330;2023-09-19T10:20:56;18.90;99.90
35523;DHT22;61478;50.820;4.330;2023-09-19T10:23:22;19.00;99.90
35523;DHT22;61478;50.820;4.330;2023-09-19T10:25:51;19.10;99.90
35523;DHT22;61478;50.820;4.330;2023-09-19T10:28:18;19.20;99.90
35523;DHT22;61478;50.820;4.330;2023-09-19T10:30:49;19.30;99.90
35523;DHT22;61478;50.820;4.330;2023-09-19T10:33:20;19.30;99.90
35523;DHT22;61478;50.820;4.330;2023-09-19T10:35:49;19.50;99.90
35523;DHT22;61478;50.820;4.330;2023-09-19T10:38:23;19.70;99.90
35523;DHT22;61478;50.820;4.330;2023-09-19T10:40:55;20.00;99.90
35523;DHT22;61478;50.820;4.330;2023-09-19T10:43:30;20.50;99.90
35523;DHT22;61478;50.820;4.330;2023-09-19T10:46:01;20.60;99.90
35523;DHT22;61478;50.820;4.330;2023-09-19T10:48:29;20.80;99.90
35523;DHT22;61478;50.820;4.330;2023-09-19T10:51:12;21.00;99.90
35523;DHT22;61478;50.820;4.330;2023-09-19T10:54:27;21.00;99.90
35523;DHT22;61478;50.820;4.330;2023-09-19T10:56:36;21.20;99.90
35523;DHT22;61478;50.820;4.330;2023-09-19T10:59:14;21.20;99.90
35523;DHT22;61478;50.820;4.330;2023-09-19T11:01:56;21.40;99.90
35523;DHT22;61478;50.820;4.330;2023-09-19T11:07:12;21.70;99.90
35523;DHT22;61478;50.820;4.330;2023-09-19T11:09:50;21.90;99.90
35523;DHT22;61478;50.820;4.330;2023-09-19T11:15:07;22.30;99.90
35523;DHT22;61478;50.820;4.330;2023-09-19T11:17:41;21.90;99.90
35523;DHT22;61478;50.820;4.330;2023-09-19T11:30:45;21.50;99.90
35523;DHT22;61478;50.820;4.330;2023-09-19T11:36:08;21.50;99.90
35523;DHT22;61478;50.820;4.330;2023-09-19T11:49:33;21.10;99.90
35523;DHT22;61478;50.820;4.330;2023-09-19T11:52:00;20.90;99.90
35523;DHT22;61478;50.820;4.330;2023-09-19T11:54:27;20.90;99.90
35523;DHT22;61478;50.820;4.330;2023-09-19T11:56:58;20.90;99.90
35523;DHT22;61478;50.820;4.330;2023-09-19T12:02:04;20.90;99.90
35523;DHT22;61478;50.820;4.330;2023-09-19T12:04:39;20.60;99.90
35523;DHT22;61478;50.820;4.330;2023-09-19T12:07:11;20.50;99.90
35523;DHT22;61478;50.820;4.330;2023-09-19T12:09:44;20.40;99.90
35523;DHT22;61478;50.820;4.330;2023-09-19T12:12:33;20.40;99.90
35523;DHT22;61478;50.820;4.330;2023-09-19T12:14:59;20.40;99.90
35523;DHT22;61478;50.820;4.330;2023-09-19T12:17:41;20.50;99.90
35523;DHT22;61478;50.820;4.330;2023-09-19T12:20:08;20.60;99.90
35523;DHT22;61478;50.820;4.330;2023-09-19T12:22:43;20.60;99.90
35523;DHT22;61478;50.820;4.330;2023-09-19T12:25:09;20.70;99.90
35523;DHT22;61478;50.820;4.330;2023-09-19T12:27:43;20.70;99.90
35523;DHT22;61478;50.820;4.330;2023-09-19T12:30:10;20.70;99.90
35523;DHT22;61478;50.820;4.330;2023-09-19T12:32:39;20.60;99.90
35523;DHT22;61478;50.820;4.330;2023-09-19T12:35:10;20.70;99.90
35523;DHT22;61478;50.820;4.330;2023-09-19T12:37:44;20.60;99.90
35523;DHT22;61478;50.820;4.330;2023-09-19T12:40:14;20.50;99.90
35523;DHT22;61478;50.820;4.330;2023-09-19T12:42:46;20.50;99.90
35523;DHT22;61478;50.820;4.330;2023-09-19T12:45:14;20.80;99.90
35523;DHT22;61478;50.820;4.330;2023-09-19T12:48:17;20.90;99.90
35523;DHT22;61478;50.820;4.330;2023-09-19T12:50:26;20.90;99.90
35523;DHT22;61478;50.820;4.330;2023-09-19T12:52:55;20.90;99.90
35523;DHT22;61478;50.820;4.330;2023-09-19T12:55:29;20.80;99.90
35523;DHT22;61478;50.820;4.330;2023-09-19T12:58:13;20.90;99.90
35523;DHT22;61478;50.820;4.330;2023-09-19T13:00:42;20.70;99.90
35523;DHT22;61478;50.820;4.330;2023-09-19T13:05:49;20.50;99.90
35523;DHT22;61478;50.820;4.330;2023-09-19T13:08:27;20.50;99.90
35523;DHT22;61478;50.820;4.330;2023-09-19T13:13:43;20.60;99.90
35523;DHT22;61478;50.820;4.330;2023-09-19T13:16:19;20.50;99.90
35523;DHT22;61478;50.820;4.330;2023-09-19T13:18:55;20.50;99.90
35523;DHT22;61478;50.820;4.330;2023-09-19T13:21:33;20.60;99.90
35523;DHT22;61478;50.820;4.330;2023-09-19T13:24:19;20.80;99.90
35523;DHT22;61478;50.820;4.330;2023-09-19T13:26:45;20.70;99.90
35523;DHT22;61478;50.820;4.330;2023-09-19T13:29:11;20.60;99.90
35523;DHT22;61478;50.820;4.330;2023-09-19T13:31:37;20.60;99.90
35523;DHT22;61478;50.820;4.330;2023-09-19T13:34:07;20.70;99.90
35523;DHT22;61478;50.820;4.330;2023-09-19T13:36:33;20.70;99.90
35523;DHT22;61478;50.820;4.330;2023-09-19T13:38:59;20.60;99.90
35523;DHT22;61478;50.820;4.330;2023-09-19T13:41:25;20.60;99.90
35523;DHT22;61478;50.820;4.330;2023-09-19T13:43:52;20.50;99.90
35523;DHT22;61478;50.820;4.330;2023-09-19T13:46:18;20.50;99.90
35523;DHT22;61478;50.820;4.330;2023-09-19T13:48:51;20.60;99.90
35523;DHT22;61478;50.820;4.330;2023-09-19T13:51:20;20.70;99.90
35523;DHT22;61478;50.820;4.330;2023-09-19T13:53:48;20.70;99.90
35523;DHT22;61478;50.820;4.330;2023-09-19T13:56:15;20.50;99.90
35523;DHT22;61478;50.820;4.330;2023-09-19T13:58:41;20.50;99.90
35523;DHT22;61478;50.820;4.330;2023-09-19T14:01:07;20.50;99.90
35523;DHT22;61478;50.820;4.330;2023-09-19T14:03:41;20.50;99.90
35523;DHT22;61478;50.820;4.330;2023-09-19T14:06:21;20.40;99.90
35523;DHT22;61478;50.820;4.330;2023-09-19T14:08:46;20.40;99.90
35523;DHT22;61478;50.820;4.330;2023-09-19T14:11:13;20.40;99.90
35523;DHT22;61478;50.820;4.330;2023-09-19T14:13:40;20.50;99.90
35523;DHT22;61478;50.820;4.330;2023-09-19T14:16:08;20.60;99.90
35523;DHT22;61478;50.820;4.330;2023-09-19T14:18:36;20.60;99.90
35523;DHT22;61478;50.820;4.330;2023-09-19T14:21:04;20.60;99.90
35523;DHT22;61478;50.820;4.330;2023-09-19T14:23:35;20.60;99.90
35523;DHT22;61478;50.820;4.330;2023-09-19T14:26:01;20.80;99.90
35523;DHT22;61478;50.820;4.330;2023-09-19T14:28:27;20.80;99.90
35523;DHT22;61478;50.820;4.330;2023-09-19T14:30:56;20.80;99.90
35523;DHT22;61478;50.820;4.330;2023-09-19T14:33:22;20.70;99.90
35523;DHT22;61478;50.820;4.330;2023-09-19T14:35:48;20.70;99.90
35523;DHT22;61478;50.820;4.330;2023-09-19T14:38:14;20.80;99.90
35523;DHT22;61478;50.820;4.330;2023-09-19T14:40:40;20.80;99.90
35523;DHT22;61478;50.820;4.330;2023-09-19T14:43:05;20.80;99.90
35523;DHT22;61478;50.820;4.330;2023-09-19T14:45:35;20.80;99.90
35523;DHT22;61478;50.820;4.330;2023-09-19T14:48:01;20.70;99.90
35523;DHT22;61478;50.820;4.330;2023-09-19T14:50:31;20.70;99.90
35523;DHT22;61478;50.820;4.330;2023-09-19T14:52:57;20.80;99.90
35523;DHT22;61478;50.820;4.330;2023-09-19T14:55:23;20.60;99.90
35523;DHT22;61478;50.820;4.330;2023-09-19T14:57:50;20.50;99.90
35523;DHT22;61478;50.820;4.330;2023-09-19T15:00:17;20.40;99.90
35523;DHT22;61478;50.820;4.330;2023-09-19T15:02:45;20.40;99.90
35523;DHT22;61478;50.820;4.330;2023-09-19T15:05:13;20.30;99.90
35523;DHT22;61478;50.820;4.330;2023-09-19T15:07:41;20.40;99.90
35523;DHT22;61478;50.820;4.330;2023-09-19T15:10:07;20.50;99.90
35523;DHT22;61478;50.820;4.330;2023-09-19T15:12:36;20.60;99.90
35523;DHT22;61478;50.820;4.330;2023-09-19T15:15:04;20.50;99.90
35523;DHT22;61478;50.820;4.330;2023-09-19T15:17:35;20.30;99.90
35523;DHT22;61478;50.820;4.330;2023-09-19T15:20:02;20.30;99.90
35523;DHT22;61478;50.820;4.330;2023-09-19T15:22:28;20.20;99.90
35523;DHT22;61478;50.820;4.330;2023-09-19T15:24:54;20.20;99.90
35523;DHT22;61478;50.820;4.330;2023-09-19T15:27:20;20.20;99.90
35523;DHT22;61478;50.820;4.330;2023-09-19T15:29:46;20.20;99.90
35523;DHT22;61478;50.820;4.330;2023-09-19T15:32:13;20.20;99.90
35523;DHT22;61478;50.820;4.330;2023-09-19T15:34:38;20.20;99.90
35523;DHT22;61478;50.820;4.330;2023-09-19T15:37:04;20.20;99.90
35523;DHT22;61478;50.820;4.330;2023-09-19T15:39:30;20.10;99.90
35523;DHT22;61478;50.820;4.330;2023-09-19T15:42:00;20.10;99.90
35523;DHT22;61478;50.820;4.330;2023-09-19T15:44:25;20.10;99.90
35523;DHT22;61478;50.820;4.330;2023-09-19T15:46:54;20.20;99.90
35523;DHT22;61478;50.820;4.330;2023-09-19T15:49:19;20.20;99.90
35523;DHT22;61478;50.820;4.330;2023-09-19T15:51:46;20.20;99.90
35523;DHT22;61478;50.820;4.330;2023-09-19T15:54:13;20.20;99.90
35523;DHT22;61478;50.820;4.330;2023-09-19T15:56:40;20.10;99.90
35523;DHT22;61478;50.820;4.330;2023-09-19T15:59:09;20.10;99.90
35523;DHT22;61478;50.820;4.330;2023-09-19T16:01:38;20.00;99.90
35523;DHT22;61478;50.820;4.330;2023-09-19T16:04:05;20.00;99.90
35523;DHT22;61478;50.820;4.330;2023-09-19T16:06:34;20.00;99.90
35523;DHT22;61478;50.820;4.330;2023-09-19T16:09:00;20.10;99.90
35523;DHT22;61478;50.820;4.330;2023-09-19T16:11:31;20.00;99.90
35523;DHT22;61478;50.820;4.330;2023-09-19T16:13:57;20.00;99.90
35523;DHT22;61478;50.820;4.330;2023-09-19T16:16:23;19.90;99.90
35523;DHT22;61478;50.820;4.330;2023-09-19T16:18:51;20.00;99.90
35523;DHT22;61478;50.820;4.330;2023-09-19T16:21:18;20.00;99.90
35523;DHT22;61478;50.820;4.330;2023-09-19T16:23:45;19.90;99.90
35523;DHT22;61478;50.820;4.330;2023-09-19T16:26:12;19.90;99.90
35523;DHT22;61478;50.820;4.330;2023-09-19T16:28:39;19.90;99.90
35523;DHT22;61478;50.820;4.330;2023-09-19T16:31:07;19.90;99.90
35523;DHT22;61478;50.820;4.330;2023-09-19T16:33:37;19.90;99.90